首页
METAR-TAF:

METAR-TAF

机场 :

甘露機場

坎卢普斯, 不列颠哥伦比亚, 加拿大

纬度: 50-42N, 经度: 120-27W, 海拔: 345米

当前天气观测

该预报发布于53分钟前的11:00 UTC
静风
温度 2°C
湿度 55%
气压 1024 hPa
能見度: 48.3公里
少量云层高于13000英尺

METAR: CYKA 091100Z 00000KT 30SM FEW130 02/M06 A3023 RMK AC1 AC TR SLP247

时间: 04:53 (11:53 UTC)

预报

该预报发布于5小时和15分钟前的06:38 UTC
预报有效从09日的 07点(UTC)到 09日的 19点(UTC)
风速5节,风向
能見度: 10公里
少量云层高于13000英尺
散云层高于25000英尺

TAF: CYKA 090638Z 0907/0919 10005KT P6SM FEW130 SCT250 RMK NXT FCST BY 091300Z

超过4000个机场的气象观测和天气预报(METAR&TAF报告)。

可查询的气象台以黄色和红色小点在地图上表示。

将鼠标移到小点上方,可查看气象台名称。

然后点击查看天气观测和预报。

如需切换地图:点击带黑十字的绿色按钮放大地图;点击带横线的绿色按钮缩小地图;或者点击绿色箭头查看邻近地区的地图。


METAR-TAF: